sensor_id;sensor_type;location;lat;lon;timestamp;P1;durP1;ratioP1;P2;durP2;ratioP2
37931;SDS011;23758;42.640;23.302;2023-04-25T00:01:14;2.40;;;2.30;;
37931;SDS011;23758;42.640;23.302;2023-04-25T00:03:39;2.70;;;2.50;;
37931;SDS011;23758;42.640;23.302;2023-04-25T00:06:05;2.40;;;2.30;;
37931;SDS011;23758;42.640;23.302;2023-04-25T00:08:31;2.50;;;2.40;;
37931;SDS011;23758;42.640;23.302;2023-04-25T00:10:57;2.80;;;2.60;;
37931;SDS011;23758;42.640;23.302;2023-04-25T00:13:23;2.50;;;2.40;;
37931;SDS011;23758;42.640;23.302;2023-04-25T00:15:50;2.47;;;2.38;;
37931;SDS011;23758;42.640;23.302;2023-04-25T00:18:16;2.50;;;2.40;;
37931;SDS011;23758;42.640;23.302;2023-04-25T00:20:42;2.45;;;2.35;;
37931;SDS011;23758;42.640;23.302;2023-04-25T00:23:11;2.70;;;2.50;;
37931;SDS011;23758;42.640;23.302;2023-04-25T00:25:43;2.70;;;2.50;;
37931;SDS011;23758;42.640;23.302;2023-04-25T00:28:11;2.80;;;2.60;;
37931;SDS011;23758;42.640;23.302;2023-04-25T00:30:38;2.90;;;2.70;;
37931;SDS011;23758;42.640;23.302;2023-04-25T00:33:04;2.75;;;2.55;;
37931;SDS011;23758;42.640;23.302;2023-04-25T00:35:29;2.80;;;2.60;;
37931;SDS011;23758;42.640;23.302;2023-04-25T00:37:55;2.80;;;2.60;;
37931;SDS011;23758;42.640;23.302;2023-04-25T00:40:20;2.80;;;2.60;;
37931;SDS011;23758;42.640;23.302;2023-04-25T00:42:46;2.70;;;2.50;;
37931;SDS011;23758;42.640;23.302;2023-04-25T00:45:13;2.80;;;2.60;;
37931;SDS011;23758;42.640;23.302;2023-04-25T00:47:40;3.00;;;2.80;;
37931;SDS011;23758;42.640;23.302;2023-04-25T00:50:05;2.50;;;2.40;;
37931;SDS011;23758;42.640;23.302;2023-04-25T00:52:32;2.50;;;2.40;;
37931;SDS011;23758;42.640;23.302;2023-04-25T00:54:57;2.50;;;2.40;;
37931;SDS011;23758;42.640;23.302;2023-04-25T00:57:23;2.60;;;2.40;;
37931;SDS011;23758;42.640;23.302;2023-04-25T00:59:49;2.70;;;2.50;;
37931;SDS011;23758;42.640;23.302;2023-04-25T01:02:16;2.70;;;2.50;;
37931;SDS011;23758;42.640;23.302;2023-04-25T01:04:42;2.63;;;2.45;;
37931;SDS011;23758;42.640;23.302;2023-04-25T01:07:07;2.42;;;2.33;;
37931;SDS011;23758;42.640;23.302;2023-04-25T01:09:34;2.53;;;2.40;;
37931;SDS011;23758;42.640;23.302;2023-04-25T01:12:00;2.70;;;2.50;;
37931;SDS011;23758;42.640;23.302;2023-04-25T01:14:26;2.55;;;2.40;;
37931;SDS011;23758;42.640;23.302;2023-04-25T01:16:51;2.50;;;2.40;;
37931;SDS011;23758;42.640;23.302;2023-04-25T01:19:17;2.45;;;2.35;;
37931;SDS011;23758;42.640;23.302;2023-04-25T01:21:43;2.50;;;2.40;;
37931;SDS011;23758;42.640;23.302;2023-04-25T01:24:09;2.67;;;2.47;;
37931;SDS011;23758;42.640;23.302;2023-04-25T01:26:35;2.70;;;2.50;;
37931;SDS011;23758;42.640;23.302;2023-04-25T01:29:01;2.70;;;2.50;;
37931;SDS011;23758;42.640;23.302;2023-04-25T01:31:27;2.70;;;2.50;;
37931;SDS011;23758;42.640;23.302;2023-04-25T01:33:52;2.67;;;2.47;;
37931;SDS011;23758;42.640;23.302;2023-04-25T01:36:18;2.50;;;2.40;;
37931;SDS011;23758;42.640;23.302;2023-04-25T01:38:44;2.40;;;2.30;;
37931;SDS011;23758;42.640;23.302;2023-04-25T01:41:11;2.70;;;2.50;;
37931;SDS011;23758;42.640;23.302;2023-04-25T01:43:36;2.70;;;2.50;;
37931;SDS011;23758;42.640;23.302;2023-04-25T01:46:02;2.70;;;2.50;;
37931;SDS011;23758;42.640;23.302;2023-04-25T01:48:27;2.88;;;2.67;;
37931;SDS011;23758;42.640;23.302;2023-04-25T01:50:53;3.20;;;2.90;;
37931;SDS011;23758;42.640;23.302;2023-04-25T01:53:18;2.50;;;2.40;;
37931;SDS011;23758;42.640;23.302;2023-04-25T01:55:44;2.78;;;2.58;;
37931;SDS011;23758;42.640;23.302;2023-04-25T01:58:09;2.70;;;2.50;;
37931;SDS011;23758;42.640;23.302;2023-04-25T02:00:37;2.75;;;2.55;;
37931;SDS011;23758;42.640;23.302;2023-04-25T02:03:04;2.72;;;2.53;;
37931;SDS011;23758;42.640;23.302;2023-04-25T02:05:39;3.13;;;2.83;;
37931;SDS011;23758;42.640;23.302;2023-04-25T02:08:06;2.70;;;2.50;;
37931;SDS011;23758;42.640;23.302;2023-04-25T02:10:32;2.50;;;2.40;;
37931;SDS011;23758;42.640;23.302;2023-04-25T02:12:58;2.97;;;2.78;;
37931;SDS011;23758;42.640;23.302;2023-04-25T02:15:23;2.67;;;2.47;;
37931;SDS011;23758;42.640;23.302;2023-04-25T02:17:49;2.50;;;2.40;;
37931;SDS011;23758;42.640;23.302;2023-04-25T02:20:14;2.50;;;2.40;;
37931;SDS011;23758;42.640;23.302;2023-04-25T02:22:41;2.60;;;2.40;;
37931;SDS011;23758;42.640;23.302;2023-04-25T02:25:08;2.50;;;2.40;;
37931;SDS011;23758;42.640;23.302;2023-04-25T02:27:34;2.50;;;2.40;;
37931;SDS011;23758;42.640;23.302;2023-04-25T02:30:00;2.40;;;2.30;;
37931;SDS011;23758;42.640;23.302;2023-04-25T02:32:26;2.50;;;2.40;;
37931;SDS011;23758;42.640;23.302;2023-04-25T02:34:52;2.55;;;2.42;;
37931;SDS011;23758;42.640;23.302;2023-04-25T02:37:17;2.67;;;2.47;;
37931;SDS011;23758;42.640;23.302;2023-04-25T02:39:43;3.15;;;2.95;;
37931;SDS011;23758;42.640;23.302;2023-04-25T02:42:08;2.65;;;2.45;;
37931;SDS011;23758;42.640;23.302;2023-04-25T02:44:33;2.67;;;2.47;;
37931;SDS011;23758;42.640;23.302;2023-04-25T02:46:59;2.60;;;2.40;;
37931;SDS011;23758;42.640;23.302;2023-04-25T02:49:24;2.70;;;2.50;;
37931;SDS011;23758;42.640;23.302;2023-04-25T02:51:50;2.70;;;2.50;;
37931;SDS011;23758;42.640;23.302;2023-04-25T02:54:16;2.75;;;2.55;;
37931;SDS011;23758;42.640;23.302;2023-04-25T02:56:41;2.70;;;2.50;;
37931;SDS011;23758;42.640;23.302;2023-04-25T02:59:07;2.70;;;2.50;;
37931;SDS011;23758;42.640;23.302;2023-04-25T03:01:32;3.10;;;2.90;;
37931;SDS011;23758;42.640;23.302;2023-04-25T03:03:57;2.65;;;2.47;;
37931;SDS011;23758;42.640;23.302;2023-04-25T03:06:23;2.80;;;2.60;;
37931;SDS011;23758;42.640;23.302;2023-04-25T03:08:48;2.80;;;2.60;;
37931;SDS011;23758;42.640;23.302;2023-04-25T03:11:14;2.97;;;2.78;;
37931;SDS011;23758;42.640;23.302;2023-04-25T03:13:39;3.13;;;2.92;;
37931;SDS011;23758;42.640;23.302;2023-04-25T03:16:05;2.90;;;2.70;;
37931;SDS011;23758;42.640;23.302;2023-04-25T03:18:31;2.80;;;2.60;;
37931;SDS011;23758;42.640;23.302;2023-04-25T03:20:56;2.95;;;2.75;;
37931;SDS011;23758;42.640;23.302;2023-04-25T03:23:22;2.45;;;2.35;;
37931;SDS011;23758;42.640;23.302;2023-04-25T03:25:47;2.78;;;2.58;;
37931;SDS011;23758;42.640;23.302;2023-04-25T03:28:13;3.08;;;2.88;;
37931;SDS011;23758;42.640;23.302;2023-04-25T03:30:39;2.90;;;2.70;;
37931;SDS011;23758;42.640;23.302;2023-04-25T03:33:05;2.75;;;2.55;;
37931;SDS011;23758;42.640;23.302;2023-04-25T03:35:30;2.70;;;2.50;;
37931;SDS011;23758;42.640;23.302;2023-04-25T03:37:56;2.90;;;2.70;;
37931;SDS011;23758;42.640;23.302;2023-04-25T03:40:21;2.70;;;2.50;;
37931;SDS011;23758;42.640;23.302;2023-04-25T03:42:47;2.70;;;2.50;;
37931;SDS011;23758;42.640;23.302;2023-04-25T03:45:12;2.70;;;2.50;;
37931;SDS011;23758;42.640;23.302;2023-04-25T03:47:38;2.70;;;2.50;;
37931;SDS011;23758;42.640;23.302;2023-04-25T03:50:03;2.80;;;2.60;;
37931;SDS011;23758;42.640;23.302;2023-04-25T03:52:29;2.67;;;2.47;;
37931;SDS011;23758;42.640;23.302;2023-04-25T03:54:55;2.90;;;2.70;;
37931;SDS011;23758;42.640;23.302;2023-04-25T03:57:20;2.63;;;2.42;;
37931;SDS011;23758;42.640;23.302;2023-04-25T03:59:46;2.70;;;2.50;;
37931;SDS011;23758;42.640;23.302;2023-04-25T04:02:11;2.50;;;2.40;;
37931;SDS011;23758;42.640;23.302;2023-04-25T04:04:37;2.42;;;2.33;;
37931;SDS011;23758;42.640;23.302;2023-04-25T04:07:02;2.70;;;2.50;;
37931;SDS011;23758;42.640;23.302;2023-04-25T04:09:28;2.45;;;2.35;;
37931;SDS011;23758;42.640;23.302;2023-04-25T04:11:53;2.40;;;2.30;;
37931;SDS011;23758;42.640;23.302;2023-04-25T04:14:19;2.40;;;2.30;;
37931;SDS011;23758;42.640;23.302;2023-04-25T04:16:44;2.90;;;2.70;;
37931;SDS011;23758;42.640;23.302;2023-04-25T04:19:10;2.38;;;2.28;;
37931;SDS011;23758;42.640;23.302;2023-04-25T04:21:35;2.80;;;2.60;;
37931;SDS011;23758;42.640;23.302;2023-04-25T04:24:01;2.40;;;2.30;;
37931;SDS011;23758;42.640;23.302;2023-04-25T04:26:27;2.40;;;2.30;;
37931;SDS011;23758;42.640;23.302;2023-04-25T04:28:52;2.67;;;2.47;;
37931;SDS011;23758;42.640;23.302;2023-04-25T04:31:21;2.40;;;2.30;;
37931;SDS011;23758;42.640;23.302;2023-04-25T04:33:47;2.78;;;2.58;;
37931;SDS011;23758;42.640;23.302;2023-04-25T04:36:12;2.92;;;2.72;;
37931;SDS011;23758;42.640;23.302;2023-04-25T04:38:38;2.90;;;2.70;;
37931;SDS011;23758;42.640;23.302;2023-04-25T04:41:05;2.42;;;2.33;;
37931;SDS011;23758;42.640;23.302;2023-04-25T04:43:30;2.67;;;2.47;;
37931;SDS011;23758;42.640;23.302;2023-04-25T04:45:58;2.70;;;2.50;;
37931;SDS011;23758;42.640;23.302;2023-04-25T04:48:25;2.42;;;2.33;;
37931;SDS011;23758;42.640;23.302;2023-04-25T04:50:51;2.50;;;2.40;;
37931;SDS011;23758;42.640;23.302;2023-04-25T04:53:16;2.75;;;2.55;;
37931;SDS011;23758;42.640;23.302;2023-04-25T04:55:42;2.80;;;2.60;;
37931;SDS011;23758;42.640;23.302;2023-04-25T04:58:08;2.42;;;2.33;;
37931;SDS011;23758;42.640;23.302;2023-04-25T05:00:33;2.78;;;2.58;;
37931;SDS011;23758;42.640;23.302;2023-04-25T05:02:59;3.00;;;2.80;;
37931;SDS011;23758;42.640;23.302;2023-04-25T05:05:25;2.63;;;2.42;;
37931;SDS011;23758;42.640;23.302;2023-04-25T05:07:50;2.70;;;2.50;;
37931;SDS011;23758;42.640;23.302;2023-04-25T05:10:16;2.70;;;2.50;;
37931;SDS011;23758;42.640;23.302;2023-04-25T05:12:42;2.72;;;2.53;;
37931;SDS011;23758;42.640;23.302;2023-04-25T05:15:08;2.80;;;2.60;;
37931;SDS011;23758;42.640;23.302;2023-04-25T05:17:34;2.50;;;2.40;;
37931;SDS011;23758;42.640;23.302;2023-04-25T05:19:59;2.70;;;2.50;;
37931;SDS011;23758;42.640;23.302;2023-04-25T05:22:25;2.80;;;2.60;;
37931;SDS011;23758;42.640;23.302;2023-04-25T05:24:50;3.00;;;2.80;;
37931;SDS011;23758;42.640;23.302;2023-04-25T05:27:16;3.00;;;2.80;;
37931;SDS011;23758;42.640;23.302;2023-04-25T05:29:42;2.70;;;2.50;;
37931;SDS011;23758;42.640;23.302;2023-04-25T05:32:08;3.00;;;2.80;;
37931;SDS011;23758;42.640;23.302;2023-04-25T05:34:34;2.75;;;2.55;;
37931;SDS011;23758;42.640;23.302;2023-04-25T05:36:59;2.97;;;2.78;;
37931;SDS011;23758;42.640;23.302;2023-04-25T05:39:25;2.70;;;2.50;;
37931;SDS011;23758;42.640;23.302;2023-04-25T05:41:51;2.70;;;2.50;;
37931;SDS011;23758;42.640;23.302;2023-04-25T05:44:16;2.70;;;2.50;;
37931;SDS011;23758;42.640;23.302;2023-04-25T05:46:42;2.80;;;2.60;;
37931;SDS011;23758;42.640;23.302;2023-04-25T05:49:08;2.70;;;2.50;;
37931;SDS011;23758;42.640;23.302;2023-04-25T05:51:33;3.20;;;3.00;;
37931;SDS011;23758;42.640;23.302;2023-04-25T05:53:59;2.40;;;2.30;;
37931;SDS011;23758;42.640;23.302;2023-04-25T05:56:24;2.75;;;2.55;;
37931;SDS011;23758;42.640;23.302;2023-04-25T05:58:50;2.70;;;2.50;;
37931;SDS011;23758;42.640;23.302;2023-04-25T06:01:16;2.50;;;2.40;;
37931;SDS011;23758;42.640;23.302;2023-04-25T06:03:41;2.47;;;2.38;;
37931;SDS011;23758;42.640;23.302;2023-04-25T06:06:10;3.00;;;2.80;;
37931;SDS011;23758;42.640;23.302;2023-04-25T06:08:36;2.50;;;2.40;;
37931;SDS011;23758;42.640;23.302;2023-04-25T06:11:03;3.50;;;3.30;;
37931;SDS011;23758;42.640;23.302;2023-04-25T06:13:29;2.28;;;2.17;;
37931;SDS011;23758;42.640;23.302;2023-04-25T06:15:54;3.03;;;2.83;;
37931;SDS011;23758;42.640;23.302;2023-04-25T06:18:20;2.25;;;2.15;;
37931;SDS011;23758;42.640;23.302;2023-04-25T06:20:45;2.50;;;2.40;;
37931;SDS011;23758;42.640;23.302;2023-04-25T06:23:11;2.20;;;2.10;;
37931;SDS011;23758;42.640;23.302;2023-04-25T06:25:36;2.35;;;2.25;;
37931;SDS011;23758;42.640;23.302;2023-04-25T06:28:02;2.28;;;2.17;;
37931;SDS011;23758;42.640;23.302;2023-04-25T06:30:27;2.40;;;2.30;;
37931;SDS011;23758;42.640;23.302;2023-04-25T06:32:53;2.38;;;2.28;;
37931;SDS011;23758;42.640;23.302;2023-04-25T06:35:19;2.72;;;2.53;;
37931;SDS011;23758;42.640;23.302;2023-04-25T06:37:44;2.45;;;2.35;;
37931;SDS011;23758;42.640;23.302;2023-04-25T06:40:10;2.30;;;2.20;;
37931;SDS011;23758;42.640;23.302;2023-04-25T06:42:36;2.97;;;2.78;;
37931;SDS011;23758;42.640;23.302;2023-04-25T06:45:01;2.38;;;2.28;;
37931;SDS011;23758;42.640;23.302;2023-04-25T06:47:27;2.50;;;2.40;;
37931;SDS011;23758;42.640;23.302;2023-04-25T06:49:53;2.30;;;2.20;;
37931;SDS011;23758;42.640;23.302;2023-04-25T06:52:18;2.13;;;2.03;;
37931;SDS011;23758;42.640;23.302;2023-04-25T06:54:44;2.20;;;2.10;;
37931;SDS011;23758;42.640;23.302;2023-04-25T06:57:10;2.22;;;2.13;;
37931;SDS011;23758;42.640;23.302;2023-04-25T06:59:35;2.30;;;2.20;;
37931;SDS011;23758;42.640;23.302;2023-04-25T07:02:01;2.17;;;2.08;;
37931;SDS011;23758;42.640;23.302;2023-04-25T07:04:27;2.30;;;2.20;;
37931;SDS011;23758;42.640;23.302;2023-04-25T07:06:52;2.20;;;2.10;;
37931;SDS011;23758;42.640;23.302;2023-04-25T07:09:18;2.38;;;2.28;;
37931;SDS011;23758;42.640;23.302;2023-04-25T07:11:44;2.40;;;2.30;;
37931;SDS011;23758;42.640;23.302;2023-04-25T07:14:09;2.40;;;2.30;;
37931;SDS011;23758;42.640;23.302;2023-04-25T07:16:35;2.40;;;2.30;;
37931;SDS011;23758;42.640;23.302;2023-04-25T07:19:00;2.30;;;2.20;;
37931;SDS011;23758;42.640;23.302;2023-04-25T07:21:26;2.40;;;2.30;;
37931;SDS011;23758;42.640;23.302;2023-04-25T07:23:51;2.53;;;2.38;;
37931;SDS011;23758;42.640;23.302;2023-04-25T07:26:17;2.30;;;2.20;;
37931;SDS011;23758;42.640;23.302;2023-04-25T07:28:42;2.20;;;2.10;;
37931;SDS011;23758;42.640;23.302;2023-04-25T07:31:08;2.20;;;2.10;;
37931;SDS011;23758;42.640;23.302;2023-04-25T07:33:34;2.10;;;2.00;;
37931;SDS011;23758;42.640;23.302;2023-04-25T07:35:59;2.63;;;2.42;;
37931;SDS011;23758;42.640;23.302;2023-04-25T07:38:25;2.10;;;2.00;;
37931;SDS011;23758;42.640;23.302;2023-04-25T07:40:50;2.40;;;2.30;;
37931;SDS011;23758;42.640;23.302;2023-04-25T07:43:16;2.22;;;2.13;;
37931;SDS011;23758;42.640;23.302;2023-04-25T07:45:42;2.05;;;1.95;;
37931;SDS011;23758;42.640;23.302;2023-04-25T07:48:08;2.17;;;2.08;;
37931;SDS011;23758;42.640;23.302;2023-04-25T07:50:34;3.47;;;3.17;;
37931;SDS011;23758;42.640;23.302;2023-04-25T07:52:59;2.60;;;2.40;;
37931;SDS011;23758;42.640;23.302;2023-04-25T07:55:25;2.10;;;2.00;;
37931;SDS011;23758;42.640;23.302;2023-04-25T07:57:51;2.20;;;2.10;;
37931;SDS011;23758;42.640;23.302;2023-04-25T08:00:16;4.63;;;2.42;;
37931;SDS011;23758;42.640;23.302;2023-04-25T08:02:42;2.00;;;1.90;;
37931;SDS011;23758;42.640;23.302;2023-04-25T08:05:08;2.20;;;2.10;;
37931;SDS011;23758;42.640;23.302;2023-04-25T08:07:36;2.10;;;2.00;;
37931;SDS011;23758;42.640;23.302;2023-04-25T08:10:02;2.15;;;2.05;;
37931;SDS011;23758;42.640;23.302;2023-04-25T08:12:28;2.20;;;2.10;;
37931;SDS011;23758;42.640;23.302;2023-04-25T08:14:54;2.22;;;2.13;;
37931;SDS011;23758;42.640;23.302;2023-04-25T08:17:19;2.35;;;2.25;;
37931;SDS011;23758;42.640;23.302;2023-04-25T08:19:45;2.10;;;2.00;;
37931;SDS011;23758;42.640;23.302;2023-04-25T08:22:10;2.42;;;2.22;;
37931;SDS011;23758;42.640;23.302;2023-04-25T08:24:36;2.10;;;2.00;;
37931;SDS011;23758;42.640;23.302;2023-04-25T08:27:01;2.10;;;2.00;;
37931;SDS011;23758;42.640;23.302;2023-04-25T08:29:27;2.10;;;2.00;;
37931;SDS011;23758;42.640;23.302;2023-04-25T08:31:53;2.00;;;1.90;;
37931;SDS011;23758;42.640;23.302;2023-04-25T08:34:19;2.00;;;1.90;;
37931;SDS011;23758;42.640;23.302;2023-04-25T08:36:45;2.00;;;1.90;;
37931;SDS011;23758;42.640;23.302;2023-04-25T08:39:11;2.10;;;2.00;;
37931;SDS011;23758;42.640;23.302;2023-04-25T08:41:37;2.00;;;1.90;;
37931;SDS011;23758;42.640;23.302;2023-04-25T08:44:02;2.10;;;2.00;;
37931;SDS011;23758;42.640;23.302;2023-04-25T08:46:28;2.00;;;1.90;;
37931;SDS011;23758;42.640;23.302;2023-04-25T08:48:55;2.10;;;2.00;;
37931;SDS011;23758;42.640;23.302;2023-04-25T08:51:23;2.22;;;2.13;;
37931;SDS011;23758;42.640;23.302;2023-04-25T08:53:50;2.20;;;2.10;;
37931;SDS011;23758;42.640;23.302;2023-04-25T08:56:17;2.10;;;2.00;;
37931;SDS011;23758;42.640;23.302;2023-04-25T08:58:50;2.05;;;1.95;;
37931;SDS011;23758;42.640;23.302;2023-04-25T09:01:16;2.00;;;1.90;;
37931;SDS011;23758;42.640;23.302;2023-04-25T09:03:43;2.20;;;2.10;;
37931;SDS011;23758;42.640;23.302;2023-04-25T09:06:10;1.90;;;1.80;;
37931;SDS011;23758;42.640;23.302;2023-04-25T09:08:36;1.95;;;1.85;;
37931;SDS011;23758;42.640;23.302;2023-04-25T09:11:02;3.65;;;3.05;;
37931;SDS011;23758;42.640;23.302;2023-04-25T09:13:28;2.20;;;2.10;;
37931;SDS011;23758;42.640;23.302;2023-04-25T09:15:55;2.20;;;2.10;;
37931;SDS011;23758;42.640;23.302;2023-04-25T09:18:31;2.40;;;2.30;;
37931;SDS011;23758;42.640;23.302;2023-04-25T09:21:07;2.08;;;1.98;;
37931;SDS011;23758;42.640;23.302;2023-04-25T09:26:16;2.40;;;2.20;;
37931;SDS011;23758;42.640;23.302;2023-04-25T09:28:43;2.17;;;2.08;;
37931;SDS011;23758;42.640;23.302;2023-04-25T09:31:11;2.42;;;2.33;;
37931;SDS011;23758;42.640;23.302;2023-04-25T09:33:37;2.40;;;2.28;;
37931;SDS011;23758;42.640;23.302;2023-04-25T09:36:09;2.53;;;2.33;;
37931;SDS011;23758;42.640;23.302;2023-04-25T09:41:06;2.70;;;2.50;;
37931;SDS011;23758;42.640;23.302;2023-04-25T09:43:32;2.40;;;2.20;;
37931;SDS011;23758;42.640;23.302;2023-04-25T09:45:58;3.67;;;2.50;;
37931;SDS011;23758;42.640;23.302;2023-04-25T09:48:26;2.20;;;2.10;;
37931;SDS011;23758;42.640;23.302;2023-04-25T09:53:37;2.10;;;2.00;;
37931;SDS011;23758;42.640;23.302;2023-04-25T09:56:04;2.22;;;2.13;;
37931;SDS011;23758;42.640;23.302;2023-04-25T09:58:34;2.10;;;2.00;;
37931;SDS011;23758;42.640;23.302;2023-04-25T10:01:02;2.10;;;2.00;;
37931;SDS011;23758;42.640;23.302;2023-04-25T10:03:32;2.58;;;2.38;;
37931;SDS011;23758;42.640;23.302;2023-04-25T10:05:59;2.30;;;2.20;;
37931;SDS011;23758;42.640;23.302;2023-04-25T10:08:34;2.20;;;2.10;;
37931;SDS011;23758;42.640;23.302;2023-04-25T10:11:01;2.30;;;2.20;;
37931;SDS011;23758;42.640;23.302;2023-04-25T10:13:28;2.10;;;2.00;;
37931;SDS011;23758;42.640;23.302;2023-04-25T10:15:55;2.13;;;2.03;;
37931;SDS011;23758;42.640;23.302;2023-04-25T10:18:26;2.10;;;2.00;;
37931;SDS011;23758;42.640;23.302;2023-04-25T10:20:55;2.00;;;1.90;;
37931;SDS011;23758;42.640;23.302;2023-04-25T10:23:22;2.20;;;2.10;;
37931;SDS011;23758;42.640;23.302;2023-04-25T10:25:47;2.95;;;2.65;;
37931;SDS011;23758;42.640;23.302;2023-04-25T10:28:14;2.15;;;2.05;;
37931;SDS011;23758;42.640;23.302;2023-04-25T10:30:56;2.40;;;2.20;;
37931;SDS011;23758;42.640;23.302;2023-04-25T10:33:39;2.05;;;1.95;;
37931;SDS011;23758;42.640;23.302;2023-04-25T10:36:16;2.00;;;1.90;;
37931;SDS011;23758;42.640;23.302;2023-04-25T10:38:44;1.95;;;1.85;;
37931;SDS011;23758;42.640;23.302;2023-04-25T10:41:11;1.90;;;1.80;;
37931;SDS011;23758;42.640;23.302;2023-04-25T10:43:38;1.92;;;1.83;;
37931;SDS011;23758;42.640;23.302;2023-04-25T10:51:26;2.40;;;2.30;;
37931;SDS011;23758;42.640;23.302;2023-04-25T10:56:31;2.20;;;2.10;;
37931;SDS011;23758;42.640;23.302;2023-04-25T10:59:05;2.25;;;2.15;;
37931;SDS011;23758;42.640;23.302;2023-04-25T11:01:52;2.20;;;2.10;;
37931;SDS011;23758;42.640;23.302;2023-04-25T11:04:29;2.10;;;2.00;;
37931;SDS011;23758;42.640;23.302;2023-04-25T11:09:39;2.10;;;2.00;;
37931;SDS011;23758;42.640;23.302;2023-04-25T11:12:07;2.10;;;2.00;;
37931;SDS011;23758;42.640;23.302;2023-04-25T11:14:33;1.92;;;1.83;;
37931;SDS011;23758;42.640;23.302;2023-04-25T11:16:59;2.10;;;2.00;;
37931;SDS011;23758;42.640;23.302;2023-04-25T11:19:26;2.00;;;1.90;;
37931;SDS011;23758;42.640;23.302;2023-04-25T11:21:55;2.00;;;1.90;;
37931;SDS011;23758;42.640;23.302;2023-04-25T11:24:31;2.00;;;1.90;;
37931;SDS011;23758;42.640;23.302;2023-04-25T11:27:01;2.17;;;2.08;;
37931;SDS011;23758;42.640;23.302;2023-04-25T11:29:28;1.85;;;1.73;;
37931;SDS011;23758;42.640;23.302;2023-04-25T11:31:54;1.98;;;1.88;;
37931;SDS011;23758;42.640;23.302;2023-04-25T11:34:23;2.10;;;2.00;;
37931;SDS011;23758;42.640;23.302;2023-04-25T11:36:49;2.20;;;2.10;;
37931;SDS011;23758;42.640;23.302;2023-04-25T11:39:15;2.75;;;2.55;;
37931;SDS011;23758;42.640;23.302;2023-04-25T11:41:41;2.47;;;2.38;;
37931;SDS011;23758;42.640;23.302;2023-04-25T11:44:07;3.03;;;2.75;;
37931;SDS011;23758;42.640;23.302;2023-04-25T11:46:36;2.20;;;2.10;;
37931;SDS011;23758;42.640;23.302;2023-04-25T11:49:01;2.20;;;2.10;;
37931;SDS011;23758;42.640;23.302;2023-04-25T11:51:27;2.20;;;2.10;;
37931;SDS011;23758;42.640;23.302;2023-04-25T11:53:53;2.30;;;2.20;;
37931;SDS011;23758;42.640;23.302;2023-04-25T11:56:18;2.70;;;2.50;;
37931;SDS011;23758;42.640;23.302;2023-04-25T11:58:58;2.50;;;2.40;;
37931;SDS011;23758;42.640;23.302;2023-04-25T12:01:32;2.80;;;2.60;;
37931;SDS011;23758;42.640;23.302;2023-04-25T12:04:09;2.75;;;2.55;;
37931;SDS011;23758;42.640;23.302;2023-04-25T12:06:39;2.70;;;2.50;;
37931;SDS011;23758;42.640;23.302;2023-04-25T12:09:07;2.45;;;2.35;;
37931;SDS011;23758;42.640;23.302;2023-04-25T12:11:40;2.08;;;1.98;;
37931;SDS011;23758;42.640;23.302;2023-04-25T12:14:30;1.90;;;1.80;;
37931;SDS011;23758;42.640;23.302;2023-04-25T12:17:00;1.90;;;1.80;;
37931;SDS011;23758;42.640;23.302;2023-04-25T12:19:34;2.00;;;1.90;;
37931;SDS011;23758;42.640;23.302;2023-04-25T12:22:01;2.10;;;2.00;;
37931;SDS011;23758;42.640;23.302;2023-04-25T12:24:28;2.00;;;1.90;;
37931;SDS011;23758;42.640;23.302;2023-04-25T12:26:58;1.90;;;1.80;;
37931;SDS011;23758;42.640;23.302;2023-04-25T12:29:25;1.90;;;1.80;;
37931;SDS011;23758;42.640;23.302;2023-04-25T12:31:52;2.22;;;2.10;;
37931;SDS011;23758;42.640;23.302;2023-04-25T12:34:19;1.90;;;1.80;;
37931;SDS011;23758;42.640;23.302;2023-04-25T12:36:45;1.80;;;1.70;;
37931;SDS011;23758;42.640;23.302;2023-04-25T12:39:23;1.90;;;1.80;;
37931;SDS011;23758;42.640;23.302;2023-04-25T12:41:50;1.80;;;1.70;;
37931;SDS011;23758;42.640;23.302;2023-04-25T12:44:18;2.00;;;1.90;;
37931;SDS011;23758;42.640;23.302;2023-04-25T12:46:45;2.00;;;1.90;;
37931;SDS011;23758;42.640;23.302;2023-04-25T12:49:10;2.00;;;1.90;;
37931;SDS011;23758;42.640;23.302;2023-04-25T12:51:37;2.10;;;2.00;;
37931;SDS011;23758;42.640;23.302;2023-04-25T12:54:03;2.10;;;2.00;;
37931;SDS011;23758;42.640;23.302;2023-04-25T12:56:30;2.20;;;2.10;;
37931;SDS011;23758;42.640;23.302;2023-04-25T12:58:56;2.10;;;2.00;;
37931;SDS011;23758;42.640;23.302;2023-04-25T13:01:21;2.30;;;2.20;;
37931;SDS011;23758;42.640;23.302;2023-04-25T13:03:47;2.40;;;2.30;;
37931;SDS011;23758;42.640;23.302;2023-04-25T13:06:14;2.80;;;2.60;;
37931;SDS011;23758;42.640;23.302;2023-04-25T13:08:40;2.70;;;2.50;;
37931;SDS011;23758;42.640;23.302;2023-04-25T13:11:06;2.47;;;2.38;;
37931;SDS011;23758;42.640;23.302;2023-04-25T13:13:31;2.50;;;2.40;;
37931;SDS011;23758;42.640;23.302;2023-04-25T13:15:59;2.42;;;2.33;;
37931;SDS011;23758;42.640;23.302;2023-04-25T13:18:28;2.50;;;2.38;;
37931;SDS011;23758;42.640;23.302;2023-04-25T13:20:54;2.58;;;2.40;;
37931;SDS011;23758;42.640;23.302;2023-04-25T13:23:20;2.75;;;2.55;;
37931;SDS011;23758;42.640;23.302;2023-04-25T13:25:46;2.75;;;2.55;;
37931;SDS011;23758;42.640;23.302;2023-04-25T13:28:12;3.40;;;3.20;;
37931;SDS011;23758;42.640;23.302;2023-04-25T13:30:37;3.00;;;2.75;;
37931;SDS011;23758;42.640;23.302;2023-04-25T13:33:03;2.80;;;2.60;;
37931;SDS011;23758;42.640;23.302;2023-04-25T13:35:29;2.70;;;2.50;;
37931;SDS011;23758;42.640;23.302;2023-04-25T13:37:55;2.83;;;2.63;;
37931;SDS011;23758;42.640;23.302;2023-04-25T13:40:21;3.00;;;2.80;;
37931;SDS011;23758;42.640;23.302;2023-04-25T13:42:46;2.70;;;2.50;;
37931;SDS011;23758;42.640;23.302;2023-04-25T13:45:12;2.70;;;2.50;;
37931;SDS011;23758;42.640;23.302;2023-04-25T13:47:37;2.70;;;2.50;;
37931;SDS011;23758;42.640;23.302;2023-04-25T13:50:03;3.17;;;2.90;;
37931;SDS011;23758;42.640;23.302;2023-04-25T13:52:32;3.05;;;2.85;;
37931;SDS011;23758;42.640;23.302;2023-04-25T13:54:58;2.78;;;2.58;;
37931;SDS011;23758;42.640;23.302;2023-04-25T13:57:24;3.20;;;3.00;;
37931;SDS011;23758;42.640;23.302;2023-04-25T13:59:50;2.90;;;2.70;;
37931;SDS011;23758;42.640;23.302;2023-04-25T14:02:16;2.80;;;2.60;;
37931;SDS011;23758;42.640;23.302;2023-04-25T14:04:42;2.70;;;2.50;;
37931;SDS011;23758;42.640;23.302;2023-04-25T14:07:07;2.35;;;2.25;;
37931;SDS011;23758;42.640;23.302;2023-04-25T14:09:33;2.42;;;2.33;;
37931;SDS011;23758;42.640;23.302;2023-04-25T14:11:59;2.50;;;2.40;;
37931;SDS011;23758;42.640;23.302;2023-04-25T14:14:25;2.30;;;2.20;;
37931;SDS011;23758;42.640;23.302;2023-04-25T14:16:51;2.40;;;2.30;;
37931;SDS011;23758;42.640;23.302;2023-04-25T14:19:18;2.40;;;2.30;;
37931;SDS011;23758;42.640;23.302;2023-04-25T14:21:44;2.20;;;2.10;;
37931;SDS011;23758;42.640;23.302;2023-04-25T14:24:09;2.10;;;2.00;;
37931;SDS011;23758;42.640;23.302;2023-04-25T14:26:38;2.10;;;2.00;;
37931;SDS011;23758;42.640;23.302;2023-04-25T14:29:04;2.30;;;2.20;;
37931;SDS011;23758;42.640;23.302;2023-04-25T14:31:30;2.28;;;2.17;;
37931;SDS011;23758;42.640;23.302;2023-04-25T14:33:56;2.20;;;2.10;;
37931;SDS011;23758;42.640;23.302;2023-04-25T14:36:21;2.25;;;2.15;;
37931;SDS011;23758;42.640;23.302;2023-04-25T14:38:47;2.20;;;2.10;;
37931;SDS011;23758;42.640;23.302;2023-04-25T14:41:13;2.15;;;2.05;;
37931;SDS011;23758;42.640;23.302;2023-04-25T14:43:38;2.00;;;1.90;;
37931;SDS011;23758;42.640;23.302;2023-04-25T14:46:05;2.10;;;2.00;;
37931;SDS011;23758;42.640;23.302;2023-04-25T14:48:31;2.00;;;1.90;;